createdAt,value
2023-01-12T00:01:10.703Z,9.00
2023-01-12T00:03:39.607Z,5.30
2023-01-12T00:06:09.495Z,12.20
2023-01-12T00:08:38.586Z,8.70
2023-01-12T00:11:11.480Z,7.20
2023-01-12T00:13:39.838Z,8.50
2023-01-12T00:16:35.987Z,9.10
2023-01-12T00:19:19.935Z,11.20
2023-01-12T00:22:09.724Z,10.50
2023-01-12T00:24:44.314Z,10.00
2023-01-12T00:27:15.349Z,9.90
2023-01-12T00:29:43.905Z,10.30
2023-01-12T00:32:14.847Z,8.50
2023-01-12T00:34:43.621Z,10.30
2023-01-12T00:37:12.984Z,11.60
2023-01-12T00:39:45.893Z,8.00
2023-01-12T00:42:36.002Z,7.40
2023-01-12T00:45:23.370Z,7.50
2023-01-12T00:47:53.795Z,8.10
2023-01-12T00:50:23.017Z,6.80
2023-01-12T00:52:51.521Z,10.80
2023-01-12T00:55:20.899Z,10.50
2023-01-12T00:57:49.179Z,6.80
2023-01-12T01:00:18.319Z,7.70
2023-01-12T01:02:46.760Z,9.20
2023-01-12T01:05:15.576Z,7.10
2023-01-12T01:07:44.097Z,8.60
2023-01-12T01:10:12.700Z,6.50
2023-01-12T01:12:42.099Z,6.90
2023-01-12T01:15:10.869Z,8.70
2023-01-12T01:17:39.159Z,7.10
2023-01-12T01:20:07.928Z,7.10
2023-01-12T01:22:39.384Z,7.80
2023-01-12T01:25:13.618Z,6.00
2023-01-12T01:27:42.224Z,7.00
2023-01-12T01:30:11.442Z,9.10
2023-01-12T01:32:40.620Z,7.50
2023-01-12T01:35:09.593Z,6.60
2023-01-12T01:37:38.022Z,6.70
2023-01-12T01:40:07.267Z,6.40
2023-01-12T01:42:35.727Z,6.30
2023-01-12T01:45:06.294Z,7.60
2023-01-12T01:47:41.381Z,8.30
2023-01-12T01:50:18.830Z,7.10
2023-01-12T01:52:53.581Z,8.20
2023-01-12T01:56:04.915Z,5.50
2023-01-12T01:58:37.253Z,7.00
2023-01-12T02:02:02.425Z,7.80
2023-01-12T02:04:31.660Z,6.90
2023-01-12T02:07:19.927Z,5.70
2023-01-12T02:09:48.298Z,4.90
2023-01-12T02:12:35.494Z,7.20
2023-01-12T02:15:22.893Z,6.50
2023-01-12T02:18:19.548Z,6.70
2023-01-12T02:20:59.459Z,5.70
2023-01-12T02:24:00.120Z,9.20
2023-01-12T02:26:50.963Z,6.40
2023-01-12T02:29:34.433Z,5.80
2023-01-12T02:32:51.442Z,8.90
2023-01-12T02:35:55.258Z,6.70
2023-01-12T02:38:23.573Z,7.80
2023-01-12T02:41:03.873Z,5.70
2023-01-12T02:43:35.508Z,7.70
2023-01-12T02:46:26.002Z,6.30
2023-01-12T02:49:11.405Z,5.70
2023-01-12T02:52:14.591Z,8.60
2023-01-12T02:54:48.277Z,7.90
2023-01-12T02:57:17.231Z,6.20
2023-01-12T02:59:46.856Z,9.90
2023-01-12T03:02:21.879Z,6.20
2023-01-12T03:05:51.049Z,6.80
2023-01-12T03:08:45.694Z,7.70
2023-01-12T03:11:37.440Z,9.40
2023-01-12T03:14:08.646Z,7.40
2023-01-12T03:16:57.843Z,7.10
2023-01-12T03:19:31.347Z,6.20
2023-01-12T03:22:03.194Z,6.30
2023-01-12T03:24:50.705Z,5.90
2023-01-12T03:27:30.321Z,8.50
2023-01-12T03:30:27.882Z,9.00
2023-01-12T03:32:57.109Z,7.10
2023-01-12T03:35:52.173Z,5.70
2023-01-12T03:39:19.362Z,8.50
2023-01-12T03:42:03.327Z,9.70
2023-01-12T03:44:45.261Z,8.60
2023-01-12T03:47:21.043Z,7.60
2023-01-12T03:50:12.495Z,10.10
2023-01-12T03:52:43.807Z,6.90
2023-01-12T03:55:17.097Z,7.60
2023-01-12T03:57:47.106Z,9.70
2023-01-12T04:00:19.669Z,8.40
2023-01-12T04:02:48.146Z,8.40
2023-01-12T04:05:17.241Z,10.70
2023-01-12T04:08:20.434Z,11.10
2023-01-12T04:10:49.032Z,9.90
2023-01-12T04:13:17.993Z,8.80
2023-01-12T04:16:06.471Z,11.90
2023-01-12T04:18:34.768Z,10.90
2023-01-12T04:21:04.054Z,9.70
2023-01-12T04:23:33.339Z,11.00
2023-01-12T04:26:02.812Z,6.60
2023-01-12T04:28:52.781Z,8.70
2023-01-12T04:31:23.493Z,8.60
2023-01-12T04:33:52.042Z,13.40
2023-01-12T04:36:21.608Z,8.70
2023-01-12T04:39:07.108Z,7.10
2023-01-12T04:42:36.212Z,6.30
2023-01-12T04:45:05.237Z,7.70
2023-01-12T04:47:35.116Z,10.70
2023-01-12T04:50:04.287Z,7.20
2023-01-12T04:52:33.624Z,10.60
2023-01-12T04:55:02.162Z,9.00
2023-01-12T04:57:31.036Z,10.70
2023-01-12T05:00:19.523Z,7.70
2023-01-12T05:02:47.998Z,7.00
2023-01-12T05:05:16.953Z,10.30
2023-01-12T05:08:04.431Z,9.50
2023-01-12T05:10:45.785Z,7.60
2023-01-12T05:13:15.378Z,11.70
2023-01-12T05:15:46.058Z,12.20
2023-01-12T05:18:14.582Z,11.10
2023-01-12T05:20:43.995Z,10.00
2023-01-12T05:23:17.175Z,10.80
2023-01-12T05:26:08.841Z,13.50
2023-01-12T05:28:37.277Z,13.60
2023-01-12T05:31:13.718Z,9.80
2023-01-12T05:33:43.426Z,11.10
2023-01-12T05:36:15.174Z,10.40
2023-01-12T05:38:43.838Z,8.30
2023-01-12T05:41:14.830Z,11.20
2023-01-12T05:43:53.278Z,11.30
2023-01-12T05:46:23.972Z,9.90
2023-01-12T05:48:54.144Z,11.90
2023-01-12T05:51:23.998Z,11.50
2023-01-12T05:53:53.545Z,11.90
2023-01-12T05:56:26.094Z,11.70
2023-01-12T05:58:58.906Z,8.70
2023-01-12T06:01:29.595Z,9.80
2023-01-12T06:04:00.384Z,11.20
2023-01-12T06:06:31.687Z,15.80
2023-01-12T06:09:01.507Z,11.60
2023-01-12T06:11:49.109Z,13.90
2023-01-12T06:14:17.794Z,14.60
2023-01-12T06:16:46.377Z,17.40
2023-01-12T06:19:14.843Z,18.90
2023-01-12T06:21:43.358Z,15.10
2023-01-12T06:24:11.755Z,17.30
2023-01-12T06:26:40.445Z,17.40
2023-01-12T06:29:09.142Z,15.30
2023-01-12T06:31:39.227Z,21.60
2023-01-12T06:34:10.466Z,18.70
2023-01-12T06:36:39.759Z,15.50
2023-01-12T06:39:09.634Z,13.60
2023-01-12T06:41:56.765Z,15.70
2023-01-12T06:44:25.942Z,16.60
2023-01-12T06:46:54.564Z,17.70
2023-01-12T06:49:23.268Z,15.80
2023-01-12T06:51:53.563Z,16.90
2023-01-12T06:54:23.196Z,21.20
2023-01-12T06:56:51.603Z,17.60
2023-01-12T06:59:20.103Z,16.80
2023-01-12T07:01:48.683Z,14.20
2023-01-12T07:04:17.207Z,19.40
2023-01-12T07:06:45.869Z,15.50
2023-01-12T07:09:14.376Z,10.90
2023-01-12T07:11:42.999Z,13.10
2023-01-12T07:14:11.327Z,10.40
2023-01-12T07:16:40.535Z,12.20
2023-01-12T07:19:09.948Z,13.70
2023-01-12T07:21:38.364Z,13.50
2023-01-12T07:24:07.577Z,11.80
2023-01-12T07:26:36.429Z,14.10
2023-01-12T07:29:04.871Z,12.10
2023-01-12T07:32:12.505Z,8.00
2023-01-12T07:34:42.087Z,11.50
2023-01-12T07:37:10.562Z,9.60
2023-01-12T07:39:40.879Z,11.70
2023-01-12T07:42:23.727Z,11.40
2023-01-12T07:45:00.922Z,12.20
2023-01-12T07:47:30.667Z,11.50
2023-01-12T07:49:59.739Z,13.90
2023-01-12T07:52:28.157Z,9.80
2023-01-12T07:54:58.168Z,11.70
2023-01-12T07:57:27.855Z,9.60
2023-01-12T07:59:56.165Z,15.00
2023-01-12T08:02:24.741Z,9.80
2023-01-12T08:04:55.076Z,12.60
2023-01-12T08:07:24.305Z,10.50
2023-01-12T08:09:52.978Z,10.40
2023-01-12T08:12:21.804Z,8.40
2023-01-12T08:14:50.392Z,8.90
2023-01-12T08:17:45.859Z,8.80
2023-01-12T08:20:19.064Z,9.30
2023-01-12T08:22:52.098Z,10.60
2023-01-12T08:25:27.241Z,10.30
2023-01-12T08:28:01.301Z,14.50
2023-01-12T08:30:30.371Z,12.60
2023-01-12T08:33:20.976Z,15.10
2023-01-12T08:35:49.818Z,12.30
2023-01-12T08:38:19.552Z,8.90
2023-01-12T08:41:09.956Z,11.40
2023-01-12T08:43:57.224Z,9.20
2023-01-12T08:46:25.552Z,8.40
2023-01-12T08:48:54.798Z,13.20
2023-01-12T08:51:30.866Z,10.70
2023-01-12T08:54:00.565Z,9.30
2023-01-12T08:56:29.581Z,12.30
2023-01-12T08:58:58.592Z,12.70
2023-01-12T09:01:27.895Z,12.50
2023-01-12T09:03:57.989Z,9.00
2023-01-12T09:06:31.006Z,9.80
2023-01-12T09:09:02.916Z,19.00
2023-01-12T09:11:32.755Z,17.90
2023-01-12T09:14:02.114Z,10.70
2023-01-12T09:16:33.287Z,21.70
2023-01-12T09:19:03.144Z,22.00
2023-01-12T09:21:33.518Z,16.40
2023-01-12T09:24:01.805Z,18.90
2023-01-12T09:26:32.709Z,17.50
2023-01-12T09:29:02.612Z,16.20
2023-01-12T09:31:33.096Z,15.80
2023-01-12T09:34:01.867Z,13.20
2023-01-12T09:36:32.967Z,11.00
2023-01-12T09:39:02.693Z,14.50
2023-01-12T09:42:13.970Z,12.40
2023-01-12T09:45:45.804Z,8.20
2023-01-12T09:48:14.709Z,12.80
2023-01-12T09:51:09.909Z,14.70
2023-01-12T09:53:41.227Z,9.50
2023-01-12T09:56:29.865Z,11.40
2023-01-12T09:59:22.828Z,10.60
2023-01-12T10:01:53.578Z,7.00
2023-01-12T10:04:21.987Z,9.80
2023-01-12T10:06:50.439Z,13.10
2023-01-12T10:09:21.890Z,11.10
2023-01-12T10:12:19.411Z,9.90
2023-01-12T10:14:53.861Z,9.10
2023-01-12T10:17:50.813Z,9.50
2023-01-12T10:20:34.128Z,12.20
2023-01-12T10:23:10.070Z,9.00
2023-01-12T10:25:43.528Z,9.10
2023-01-12T10:28:24.429Z,13.20
2023-01-12T10:30:56.446Z,12.60
2023-01-12T10:33:30.488Z,11.80
2023-01-12T10:36:09.979Z,11.60
2023-01-12T10:38:56.838Z,10.50
2023-01-12T10:41:29.809Z,10.50
2023-01-12T10:44:01.173Z,11.70
2023-01-12T10:46:34.494Z,12.20
2023-01-12T10:49:23.934Z,11.00
2023-01-12T10:51:59.582Z,9.90
2023-01-12T10:54:34.692Z,10.00
2023-01-12T10:57:24.438Z,10.20
2023-01-12T11:00:02.891Z,11.10
2023-01-12T11:02:44.706Z,11.00
2023-01-12T11:05:37.024Z,13.60
2023-01-12T11:08:26.676Z,14.10
2023-01-12T11:10:57.116Z,10.00
2023-01-12T11:13:37.053Z,12.90
2023-01-12T11:16:39.308Z,11.70
2023-01-12T11:19:33.004Z,10.40
2023-01-12T11:22:22.164Z,9.30
2023-01-12T11:25:32.255Z,9.40
2023-01-12T11:28:33.798Z,7.40
2023-01-12T11:31:08.397Z,8.00
2023-01-12T11:34:00.956Z,8.90
2023-01-12T11:36:37.359Z,10.10
2023-01-12T11:39:31.700Z,9.30
2023-01-12T11:42:21.520Z,11.20
2023-01-12T11:45:15.358Z,11.60
2023-01-12T11:47:51.853Z,9.70
2023-01-12T11:50:33.786Z,8.90
2023-01-12T11:53:05.431Z,11.80
2023-01-12T11:55:56.892Z,10.70
2023-01-12T11:58:43.452Z,8.50
2023-01-12T12:01:34.239Z,9.80
2023-01-12T12:04:26.140Z,10.00
2023-01-12T12:07:09.377Z,9.70
2023-01-12T12:09:53.447Z,11.50
2023-01-12T12:12:48.207Z,9.60
2023-01-12T12:15:28.560Z,9.40
2023-01-12T12:18:17.138Z,13.30
2023-01-12T12:21:06.062Z,13.20
2023-01-12T12:23:59.725Z,12.70
2023-01-12T12:26:36.923Z,15.10
2023-01-12T12:29:16.193Z,13.00
2023-01-12T12:32:18.858Z,10.30
2023-01-12T12:34:47.357Z,10.50
2023-01-12T12:37:57.157Z,10.00
2023-01-12T12:41:20.121Z,11.10
2023-01-12T12:44:37.718Z,8.90
2023-01-12T12:47:24.113Z,9.10
2023-01-12T12:49:56.719Z,11.90
2023-01-12T12:52:29.832Z,11.10
2023-01-12T12:54:59.574Z,11.70
2023-01-12T12:57:27.927Z,9.70
2023-01-12T13:00:00.188Z,10.80
2023-01-12T13:02:33.889Z,9.70
2023-01-12T13:05:05.319Z,13.00
2023-01-12T13:07:37.980Z,8.80
2023-01-12T13:10:31.527Z,11.80
2023-01-12T13:13:04.541Z,12.60
2023-01-12T13:15:37.358Z,10.30
2023-01-12T13:18:06.487Z,9.40
2023-01-12T13:20:56.804Z,8.80
2023-01-12T13:23:46.203Z,12.00
2023-01-12T13:26:35.884Z,11.00
2023-01-12T13:29:24.812Z,9.00
2023-01-12T13:32:27.987Z,11.80
2023-01-12T13:34:56.431Z,8.70
2023-01-12T13:37:34.428Z,10.60
2023-01-12T13:40:28.714Z,8.60
2023-01-12T13:43:16.227Z,10.70
2023-01-12T13:46:10.767Z,8.70
2023-01-12T13:48:46.140Z,8.90
2023-01-12T13:51:21.159Z,9.70
2023-01-12T13:54:07.266Z,9.90
2023-01-12T13:56:35.694Z,9.90
2023-01-12T13:59:08.082Z,12.10
2023-01-12T14:01:39.677Z,13.50
2023-01-12T14:04:14.027Z,13.30
2023-01-12T14:06:54.502Z,13.10
2023-01-12T14:09:27.724Z,10.00
2023-01-12T14:12:34.817Z,8.70
2023-01-12T14:15:41.491Z,9.20
2023-01-12T14:18:13.776Z,13.10
2023-01-12T14:20:52.184Z,15.50
2023-01-12T14:23:25.009Z,11.40
2023-01-12T14:26:14.702Z,11.40
2023-01-12T14:28:52.564Z,19.90
2023-01-12T14:31:31.908Z,18.80
2023-01-12T14:34:04.688Z,21.40
2023-01-12T14:36:45.738Z,26.30
2023-01-12T14:39:22.155Z,23.50
2023-01-12T14:42:11.949Z,14.00
2023-01-12T14:45:13.567Z,14.70
2023-01-12T14:47:42.195Z,14.70
2023-01-12T14:50:13.584Z,18.90
2023-01-12T14:52:46.987Z,17.10
2023-01-12T14:55:16.381Z,15.60
2023-01-12T14:57:52.367Z,17.60
2023-01-12T15:00:27.938Z,17.90
2023-01-12T15:03:02.068Z,17.30
2023-01-12T15:05:34.297Z,20.00
2023-01-12T15:08:19.894Z,15.00
2023-01-12T15:11:01.067Z,14.40
2023-01-12T15:13:34.686Z,17.00
2023-01-12T15:16:23.676Z,16.40
2023-01-12T15:19:12.443Z,12.40
2023-01-12T15:22:05.354Z,13.20
2023-01-12T15:24:54.584Z,14.60
2023-01-12T15:27:24.028Z,15.50
2023-01-12T15:29:52.517Z,23.20
2023-01-12T15:32:46.329Z,20.90
2023-01-12T15:35:25.994Z,17.80
2023-01-12T15:37:56.567Z,17.40
2023-01-12T15:40:26.736Z,20.10
2023-01-12T15:42:55.417Z,16.80
2023-01-12T15:45:32.922Z,16.10
2023-01-12T15:48:02.777Z,18.30
2023-01-12T15:50:32.351Z,16.10
2023-01-12T15:53:01.935Z,17.00
2023-01-12T15:55:36.361Z,23.00
2023-01-12T15:58:04.792Z,23.60
2023-01-12T16:00:34.237Z,25.00
2023-01-12T16:03:05.009Z,21.60
2023-01-12T16:05:33.332Z,23.20
2023-01-12T16:08:01.580Z,21.10
2023-01-12T16:10:30.636Z,19.70
2023-01-12T16:13:07.584Z,17.80
2023-01-12T16:15:36.005Z,18.20
2023-01-12T16:18:04.418Z,14.70
2023-01-12T16:20:32.636Z,18.00
2023-01-12T16:23:00.870Z,15.10
2023-01-12T16:25:29.129Z,14.20
2023-01-12T16:27:57.597Z,16.90
2023-01-12T16:30:25.977Z,15.60
2023-01-12T16:32:57.668Z,13.00
2023-01-12T16:35:26.130Z,17.30
2023-01-12T16:38:14.464Z,14.80
2023-01-12T16:40:45.404Z,11.40
2023-01-12T16:43:13.915Z,11.20
2023-01-12T16:45:42.787Z,10.30
2023-01-12T16:48:11.112Z,14.00
2023-01-12T16:50:41.328Z,13.80
2023-01-12T16:53:11.654Z,20.10
2023-01-12T16:55:45.137Z,21.00
2023-01-12T16:58:15.339Z,17.00
2023-01-12T17:00:43.695Z,21.70
2023-01-12T17:03:14.566Z,21.00
2023-01-12T17:05:43.293Z,17.80
2023-01-12T17:08:11.557Z,18.40
2023-01-12T17:10:40.244Z,20.80
2023-01-12T17:13:08.506Z,26.90
2023-01-12T17:15:37.448Z,21.90
2023-01-12T17:18:06.276Z,22.70
2023-01-12T17:20:35.048Z,27.40
2023-01-12T17:23:03.727Z,26.40
2023-01-12T17:25:33.578Z,19.40
2023-01-12T17:28:02.025Z,16.60
2023-01-12T17:30:31.790Z,15.50
2023-01-12T17:33:00.044Z,13.10
2023-01-12T17:35:28.339Z,24.20
2023-01-12T17:37:56.613Z,16.00
2023-01-12T17:40:27.486Z,14.00
2023-01-12T17:43:07.816Z,21.00
2023-01-12T17:45:43.820Z,19.20
2023-01-12T17:48:13.249Z,20.30
2023-01-12T17:50:41.868Z,30.30
2023-01-12T17:53:17.567Z,19.20
2023-01-12T17:55:48.746Z,19.60
2023-01-12T17:58:18.830Z,20.80
2023-01-12T18:00:47.422Z,19.10
2023-01-12T18:03:16.036Z,19.00
2023-01-12T18:05:47.075Z,17.80
2023-01-12T18:08:16.185Z,13.90
2023-01-12T18:10:45.460Z,14.90
2023-01-12T18:13:14.426Z,17.00
2023-01-12T18:15:43.384Z,18.10
2023-01-12T18:18:11.825Z,15.20
2023-01-12T18:20:40.163Z,16.30
2023-01-12T18:23:08.485Z,15.30
2023-01-12T18:25:37.251Z,17.20
2023-01-12T18:28:06.185Z,16.10
2023-01-12T18:30:35.161Z,17.60
2023-01-12T18:33:10.331Z,15.70
2023-01-12T18:35:39.241Z,14.50
2023-01-12T18:38:08.183Z,18.30
2023-01-12T18:40:36.524Z,17.60
2023-01-12T18:43:04.767Z,19.30
2023-01-12T18:45:33.565Z,19.30
2023-01-12T18:48:20.405Z,17.20
2023-01-12T18:51:11.699Z,18.70
2023-01-12T18:53:41.139Z,16.20
2023-01-12T18:56:10.268Z,18.30
2023-01-12T18:58:40.208Z,20.00
2023-01-12T19:01:13.798Z,19.30
2023-01-12T19:03:42.218Z,19.90
2023-01-12T19:06:28.944Z,16.60
2023-01-12T19:09:15.865Z,17.70
2023-01-12T19:11:44.853Z,20.00
2023-01-12T19:14:31.820Z,16.50
2023-01-12T19:17:19.070Z,18.90
2023-01-12T19:19:47.406Z,17.10
2023-01-12T19:22:34.478Z,16.50
2023-01-12T19:25:21.881Z,19.40
2023-01-12T19:28:08.824Z,20.80
2023-01-12T19:30:38.381Z,21.30
2023-01-12T19:33:09.030Z,15.90
2023-01-12T19:35:38.004Z,15.20
2023-01-12T19:38:06.436Z,17.50
2023-01-12T19:40:44.575Z,18.20
2023-01-12T19:43:20.589Z,18.10
2023-01-12T19:45:59.115Z,15.80
2023-01-12T19:48:27.945Z,17.30
2023-01-12T19:50:56.355Z,14.20
2023-01-12T19:53:28.811Z,16.50
2023-01-12T19:55:57.150Z,19.40
2023-01-12T19:58:27.525Z,17.60
2023-01-12T20:01:00.902Z,18.10
2023-01-12T20:03:29.252Z,17.20
2023-01-12T20:05:57.914Z,19.60
2023-01-12T20:08:26.477Z,17.70
2023-01-12T20:10:59.744Z,16.10
2023-01-12T20:13:28.213Z,16.80
2023-01-12T20:15:57.821Z,16.20
2023-01-12T20:18:35.967Z,16.60
2023-01-12T20:21:12.050Z,17.40
2023-01-12T20:23:46.301Z,19.10
2023-01-12T20:26:15.858Z,17.20
2023-01-12T20:28:45.203Z,23.20
2023-01-12T20:31:16.113Z,23.10
2023-01-12T20:33:44.623Z,25.20
2023-01-12T20:36:15.563Z,18.10
2023-01-12T20:38:46.087Z,21.50
2023-01-12T20:41:15.201Z,18.10
2023-01-12T20:43:45.985Z,16.40
2023-01-12T20:46:17.322Z,17.10
2023-01-12T20:48:45.695Z,15.20
2023-01-12T20:51:32.608Z,15.20
2023-01-12T20:54:03.352Z,18.70
2023-01-12T20:56:37.446Z,15.30
2023-01-12T20:59:06.767Z,13.90
2023-01-12T21:01:35.213Z,15.00
2023-01-12T21:04:03.895Z,14.30
2023-01-12T21:06:32.343Z,14.70
2023-01-12T21:09:00.816Z,14.20
2023-01-12T21:11:29.712Z,16.80
2023-01-12T21:13:59.095Z,14.50
2023-01-12T21:16:31.603Z,17.80
2023-01-12T21:19:04.077Z,14.80
2023-01-12T21:21:50.153Z,17.30
2023-01-12T21:24:18.480Z,16.20
2023-01-12T21:26:48.713Z,15.90
2023-01-12T21:29:17.918Z,14.20
2023-01-12T21:31:47.777Z,14.00
2023-01-12T21:34:16.259Z,15.20
2023-01-12T21:36:46.417Z,17.40
2023-01-12T21:39:16.156Z,15.20
2023-01-12T21:42:03.045Z,14.50
2023-01-12T21:44:31.684Z,11.70
2023-01-12T21:47:00.008Z,16.00
2023-01-12T21:49:28.324Z,16.00
2023-01-12T21:51:57.181Z,12.90
2023-01-12T21:54:26.285Z,15.50
2023-01-12T21:56:54.585Z,13.40
2023-01-12T21:59:22.991Z,16.60
2023-01-12T22:01:51.732Z,13.30
2023-01-12T22:04:20.394Z,13.70
2023-01-12T22:06:52.667Z,14.60
2023-01-12T22:09:21.337Z,14.10
2023-01-12T22:11:49.690Z,16.40
2023-01-12T22:14:18.214Z,14.50
2023-01-12T22:16:46.630Z,14.70
2023-01-12T22:19:15.036Z,14.80
2023-01-12T22:21:44.430Z,14.90
2023-01-12T22:24:12.875Z,11.70
2023-01-12T22:26:41.870Z,12.80
2023-01-12T22:29:10.421Z,12.80
2023-01-12T22:31:39.224Z,12.30
2023-01-12T22:34:08.420Z,13.60
2023-01-12T22:36:43.115Z,13.20
2023-01-12T22:39:12.505Z,10.40
2023-01-12T22:41:41.302Z,10.50
2023-01-12T22:44:09.758Z,11.10
2023-01-12T22:46:38.692Z,10.60
2023-01-12T22:49:07.513Z,13.50
2023-01-12T22:51:36.362Z,11.30
2023-01-12T22:54:08.707Z,11.10
2023-01-12T22:56:41.022Z,9.80
2023-01-12T22:59:09.999Z,9.40
2023-01-12T23:01:39.006Z,10.00
2023-01-12T23:04:13.622Z,10.50
2023-01-12T23:06:42.036Z,10.10
2023-01-12T23:09:12.023Z,12.80
2023-01-12T23:11:40.515Z,10.20
2023-01-12T23:14:09.055Z,11.50
2023-01-12T23:16:37.490Z,10.20
2023-01-12T23:19:05.721Z,10.00
2023-01-12T23:21:35.861Z,12.40
2023-01-12T23:24:05.402Z,9.50
2023-01-12T23:26:45.663Z,9.90
2023-01-12T23:29:16.357Z,10.90
2023-01-12T23:31:44.643Z,10.10
2023-01-12T23:34:13.708Z,12.50
2023-01-12T23:36:42.452Z,11.50
2023-01-12T23:39:12.510Z,8.90
2023-01-12T23:41:40.740Z,9.40
2023-01-12T23:44:10.236Z,10.80
2023-01-12T23:46:43.913Z,9.20
2023-01-12T23:49:12.242Z,8.40
2023-01-12T23:51:40.690Z,10.70
2023-01-12T23:54:13.339Z,10.90
2023-01-12T23:56:46.315Z,9.50
2023-01-12T23:59:15.783Z,9.30
